createdAt,value
2023-03-21T00:00:03.286Z,9.63
2023-03-21T00:01:04.361Z,9.54
2023-03-21T00:02:04.809Z,9.58
2023-03-21T00:03:04.839Z,9.58
2023-03-21T00:04:05.503Z,9.55
2023-03-21T00:05:21.008Z,9.55
2023-03-21T00:06:06.435Z,9.51
2023-03-21T00:07:07.344Z,9.49
2023-03-21T00:08:08.738Z,9.62
2023-03-21T00:09:08.137Z,9.51
2023-03-21T00:10:40.267Z,9.56
2023-03-21T00:11:09.412Z,9.55
2023-03-21T00:12:09.807Z,9.54
2023-03-21T00:13:09.825Z,9.55
2023-03-21T00:14:10.367Z,9.49
2023-03-21T00:15:11.348Z,9.55
2023-03-21T00:16:33.627Z,9.54
2023-03-21T00:17:12.805Z,9.54
2023-03-21T00:18:12.500Z,9.58
2023-03-21T00:19:13.176Z,9.55
2023-03-21T00:20:14.106Z,9.49
2023-03-21T00:22:07.796Z,9.48
2023-03-21T00:22:25.521Z,9.54
2023-03-21T00:23:25.739Z,9.54
2023-03-21T00:24:26.490Z,9.47
2023-03-21T00:25:27.649Z,9.47
2023-03-21T00:26:28.393Z,9.45
2023-03-21T00:28:08.844Z,9.44
2023-03-21T00:28:56.930Z,9.42
2023-03-21T00:29:57.492Z,9.39
2023-03-21T00:30:58.417Z,9.42
2023-03-21T00:31:58.700Z,9.39
2023-03-21T00:33:22.223Z,9.37
2023-03-21T00:33:59.510Z,9.39
2023-03-21T00:36:02.415Z,9.33
2023-03-21T00:36:21.351Z,9.33
2023-03-21T00:37:21.425Z,9.36
2023-03-21T00:38:22.376Z,9.36
2023-03-21T00:39:23.114Z,9.36
2023-03-21T00:40:47.186Z,9.33
2023-03-21T00:41:44.621Z,9.34
2023-03-21T00:42:25.118Z,9.39
2023-03-21T00:43:25.060Z,9.37
2023-03-21T00:44:25.724Z,9.39
2023-03-21T00:45:26.217Z,9.36
2023-03-21T00:46:51.530Z,9.34
2023-03-21T00:47:27.149Z,9.42
2023-03-21T00:48:28.199Z,9.37
2023-03-21T00:49:28.400Z,9.42
2023-03-21T00:50:29.147Z,9.4
2023-03-21T00:51:29.674Z,9.37
2023-03-21T00:52:45.916Z,9.42
2023-03-21T00:53:30.605Z,9.33
2023-03-21T00:54:32.106Z,9.4
2023-03-21T00:55:32.016Z,9.4
2023-03-21T00:56:33.049Z,9.36
2023-03-21T00:57:56.086Z,9.4
2023-03-21T00:58:33.740Z,9.37
2023-03-21T00:59:34.064Z,9.37
2023-03-21T01:00:35.222Z,9.42
2023-03-21T01:01:35.904Z,9.34
2023-03-21T01:02:37.057Z,9.36
2023-03-21T01:03:37.518Z,9.48
2023-03-21T01:04:37.193Z,9.42
2023-03-21T01:05:38.919Z,9.42
2023-03-21T01:06:38.906Z,9.44
2023-03-21T01:07:39.325Z,9.34
2023-03-21T01:08:54.606Z,9.34
2023-03-21T01:09:42.368Z,9.42
2023-03-21T01:10:42.595Z,9.39
2023-03-21T01:11:42.583Z,9.34
2023-03-21T01:12:43.787Z,9.4
2023-03-21T01:14:21.192Z,9.39
2023-03-21T01:14:44.688Z,9.39
2023-03-21T01:15:45.221Z,9.34
2023-03-21T01:16:45.577Z,9.39
2023-03-21T01:17:45.821Z,9.39
2023-03-21T01:18:46.372Z,9.44
2023-03-21T01:19:58.233Z,9.4
2023-03-21T01:20:58.147Z,9.48
2023-03-21T01:21:59.375Z,9.45
2023-03-21T01:23:00.328Z,9.51
2023-03-21T01:24:00.947Z,9.51
2023-03-21T01:25:23.097Z,9.47
2023-03-21T01:26:02.349Z,9.54
2023-03-21T01:27:03.289Z,9.49
2023-03-21T01:28:03.554Z,9.49
2023-03-21T01:29:04.396Z,9.51
2023-03-21T01:30:20.446Z,9.54
2023-03-21T01:31:05.040Z,9.55
2023-03-21T01:32:06.301Z,9.48
2023-03-21T01:33:07.110Z,9.52
2023-03-21T01:34:07.369Z,9.49
2023-03-21T01:35:08.318Z,9.44
2023-03-21T01:36:24.123Z,9.48
2023-03-21T01:37:10.114Z,9.42
2023-03-21T01:38:10.089Z,9.42
2023-03-21T01:39:10.451Z,9.39
2023-03-21T01:40:12.046Z,9.37
2023-03-21T01:41:41.835Z,9.42
2023-03-21T01:42:13.022Z,9.42
2023-03-21T01:43:13.684Z,9.4
2023-03-21T01:44:13.598Z,9.39
2023-03-21T01:45:15.130Z,9.39
2023-03-21T01:46:15.283Z,9.45
2023-03-21T01:47:18.284Z,9.36
2023-03-21T01:48:16.518Z,9.36
2023-03-21T01:49:17.116Z,9.39
2023-03-21T01:50:17.472Z,9.39
2023-03-21T01:51:17.966Z,9.4
2023-03-21T01:52:38.504Z,9.31
2023-03-21T01:53:18.338Z,9.31
2023-03-21T01:54:19.494Z,9.4
2023-03-21T01:55:19.742Z,9.33
2023-03-21T01:56:19.669Z,9.34
2023-03-21T01:57:20.968Z,9.3
2023-03-21T01:58:20.653Z,9.33
2023-03-21T01:59:21.849Z,9.26
2023-03-21T02:00:22.296Z,9.37
2023-03-21T02:01:23.284Z,9.37
2023-03-21T02:02:23.590Z,9.26
2023-03-21T02:03:39.284Z,9.26
2023-03-21T02:04:24.604Z,9.31
2023-03-21T02:05:24.699Z,9.31
2023-03-21T02:06:25.211Z,9.29
2023-03-21T02:07:25.133Z,9.3
2023-03-21T02:08:40.056Z,9.33
2023-03-21T02:09:26.041Z,9.3
2023-03-21T02:10:26.501Z,9.29
2023-03-21T02:11:27.140Z,9.33
2023-03-21T02:12:27.369Z,9.29
2023-03-21T02:13:28.588Z,9.33
2023-03-21T02:14:35.264Z,9.29
2023-03-21T02:15:29.459Z,9.3
2023-03-21T02:16:30.328Z,9.3
2023-03-21T02:17:30.479Z,9.29
2023-03-21T02:18:31.007Z,9.27
2023-03-21T02:19:53.633Z,9.27
2023-03-21T02:20:41.876Z,9.33
2023-03-21T02:21:43.078Z,9.24
2023-03-21T02:22:43.574Z,9.29
2023-03-21T02:23:43.210Z,9.18
2023-03-21T02:24:59.508Z,9.18
2023-03-21T02:25:45.038Z,9.18
2023-03-21T02:27:03.333Z,9.19
2023-03-21T02:27:45.215Z,9.27
2023-03-21T02:28:45.702Z,9.18
2023-03-21T02:29:46.337Z,9.16
2023-03-21T02:30:58.837Z,9.09
2023-03-21T02:31:46.999Z,9.12
2023-03-21T02:32:47.402Z,9.12
2023-03-21T02:33:47.664Z,9.13
2023-03-21T02:34:48.896Z,9.15
2023-03-21T02:36:13.501Z,9.13
2023-03-21T02:36:50.318Z,9.09
2023-03-21T02:38:01.203Z,9.12
2023-03-21T02:38:51.183Z,9.13
2023-03-21T02:39:51.413Z,9.05
2023-03-21T02:40:51.706Z,9.12
2023-03-21T02:41:52.143Z,9.16
2023-03-21T02:43:01.977Z,9.11
2023-03-21T02:43:53.614Z,9.11
2023-03-21T02:44:53.529Z,9.22
2023-03-21T02:45:54.194Z,9.18
2023-03-21T02:47:07.085Z,9.08
2023-03-21T02:47:55.192Z,9.11
2023-03-21T02:48:57.257Z,9.09
2023-03-21T02:49:55.993Z,9.15
2023-03-21T02:50:56.997Z,9.11
2023-03-21T02:52:14.418Z,9.12
2023-03-21T02:52:57.047Z,9.12
2023-03-21T02:54:47.781Z,9.08
2023-03-21T02:55:05.331Z,9.12
2023-03-21T02:56:05.269Z,9.11
2023-03-21T02:57:06.465Z,9.08
2023-03-21T02:58:18.687Z,9
2023-03-21T02:59:07.908Z,9.12
2023-03-21T03:00:21.252Z,9.02
2023-03-21T03:01:09.352Z,9.11
2023-03-21T03:02:09.427Z,9.09
2023-03-21T03:03:34.630Z,9.16
2023-03-21T03:04:10.338Z,9.12
2023-03-21T03:05:23.753Z,9.15
2023-03-21T03:06:11.680Z,9.03
2023-03-21T03:07:12.642Z,9.11
2023-03-21T03:08:13.478Z,9.09
2023-03-21T03:09:14.838Z,9
2023-03-21T03:10:14.461Z,9.16
2023-03-21T03:11:15.529Z,9.09
2023-03-21T03:12:16.775Z,9.13
2023-03-21T03:13:16.996Z,9.09
2023-03-21T03:15:03.317Z,9.03
2023-03-21T03:15:20.617Z,9.09
2023-03-21T03:16:20.907Z,9.02
2023-03-21T03:17:20.821Z,9.08
2023-03-21T03:18:21.907Z,9.15
2023-03-21T03:19:22.874Z,9.08
2023-03-21T03:20:23.870Z,9.15
2023-03-21T03:21:25.040Z,9.12
2023-03-21T03:22:26.023Z,9.13
2023-03-21T03:23:26.665Z,9.12
2023-03-21T03:24:26.918Z,9.13
2023-03-21T03:25:43.962Z,9.11
2023-03-21T03:26:28.193Z,9.12
2023-03-21T03:27:28.833Z,9.15
2023-03-21T03:28:29.310Z,9.11
2023-03-21T03:29:29.682Z,9.13
2023-03-21T03:31:01.060Z,9.05
2023-03-21T03:31:56.547Z,9.09
2023-03-21T03:32:56.085Z,9.12
2023-03-21T03:33:57.445Z,9.09
2023-03-21T03:34:58.370Z,9.05
2023-03-21T03:36:30.308Z,9.15
2023-03-21T03:36:59.185Z,9.11
2023-03-21T03:37:59.151Z,9.15
2023-03-21T03:38:59.384Z,9.09
2023-03-21T03:39:59.938Z,9
2023-03-21T03:41:00.158Z,9.05
2023-03-21T03:42:34.640Z,9.08
2023-03-21T03:43:28.894Z,9
2023-03-21T03:44:29.375Z,8.99
2023-03-21T03:45:30.022Z,9.09
2023-03-21T03:46:31.375Z,9.05
2023-03-21T03:47:57.325Z,9.03
2023-03-21T03:48:32.700Z,9.02
2023-03-21T03:49:32.879Z,8.96
2023-03-21T03:50:33.921Z,8.99
2023-03-21T03:51:33.800Z,8.95
2023-03-21T03:52:35.802Z,9
2023-03-21T03:53:35.429Z,8.93
2023-03-21T03:54:35.643Z,8.96
2023-03-21T03:55:35.878Z,8.95
2023-03-21T03:56:36.101Z,8.97
2023-03-21T03:57:37.014Z,8.96
2023-03-21T03:58:50.297Z,8.97
2023-03-21T03:59:38.671Z,8.95
2023-03-21T04:00:39.427Z,8.92
2023-03-21T04:01:39.855Z,8.92
2023-03-21T04:02:40.497Z,9.03
2023-03-21T04:04:13.122Z,8.93
2023-03-21T04:04:41.943Z,8.97
2023-03-21T04:05:42.254Z,8.92
2023-03-21T04:06:42.748Z,8.81
2023-03-21T04:07:43.011Z,8.86
2023-03-21T04:08:43.967Z,8.86
2023-03-21T04:09:50.538Z,8.82
2023-03-21T04:10:45.511Z,8.84
2023-03-21T04:11:46.480Z,8.82
2023-03-21T04:12:47.815Z,8.82
2023-03-21T04:13:48.738Z,8.78
2023-03-21T04:15:01.920Z,8.84
2023-03-21T04:15:49.828Z,8.93
2023-03-21T04:16:50.658Z,8.87
2023-03-21T04:17:50.907Z,8.93
2023-03-21T04:18:52.135Z,8.79
2023-03-21T04:20:10.592Z,8.92
2023-03-21T04:20:53.606Z,8.93
2023-03-21T04:21:53.546Z,8.97
2023-03-21T04:22:53.941Z,8.95
2023-03-21T04:23:54.215Z,8.96
2023-03-21T04:24:55.449Z,8.96
2023-03-21T04:26:02.401Z,9.02
2023-03-21T04:26:56.398Z,9.08
2023-03-21T04:27:57.332Z,9.05
2023-03-21T04:28:57.841Z,8.99
2023-03-21T04:29:58.342Z,9
2023-03-21T04:31:26.104Z,9.08
2023-03-21T04:31:59.892Z,9.05
2023-03-21T04:32:59.812Z,9.02
2023-03-21T04:34:00.047Z,9
2023-03-21T04:35:00.549Z,9.03
2023-03-21T04:36:01.149Z,9.05
2023-03-21T04:37:01.838Z,9.05
2023-03-21T04:38:02.504Z,8.95
2023-03-21T04:39:02.754Z,9.03
2023-03-21T04:40:03.656Z,9.12
2023-03-21T04:41:04.484Z,9.02
2023-03-21T04:42:04.706Z,9.09
2023-03-21T04:43:04.998Z,9.11
2023-03-21T04:44:05.980Z,9
2023-03-21T04:45:05.932Z,9.03
2023-03-21T04:46:07.201Z,9.09
2023-03-21T04:47:08.283Z,9.11
2023-03-21T04:48:08.973Z,9.03
2023-03-21T04:49:09.183Z,9.02
2023-03-21T04:50:09.244Z,9.03
2023-03-21T04:51:09.889Z,9
2023-03-21T04:52:10.112Z,9.05
2023-03-21T04:53:10.212Z,9.12
2023-03-21T04:54:10.883Z,9
2023-03-21T04:55:12.399Z,9.03
2023-03-21T04:56:12.656Z,8.93
2023-03-21T04:57:12.588Z,8.96
2023-03-21T04:58:13.292Z,8.9
2023-03-21T04:59:13.938Z,8.87
2023-03-21T05:00:15.153Z,8.77
2023-03-21T05:01:15.099Z,8.81
2023-03-21T05:02:15.605Z,8.78
2023-03-21T05:03:16.287Z,8.79
2023-03-21T05:04:16.766Z,8.69
2023-03-21T05:05:16.704Z,8.64
2023-03-21T05:06:17.400Z,8.69
2023-03-21T05:07:17.917Z,8.63
2023-03-21T05:08:18.171Z,8.66
2023-03-21T05:09:18.399Z,8.59
2023-03-21T05:10:18.339Z,8.64
2023-03-21T05:11:18.583Z,8.52
2023-03-21T05:12:19.800Z,8.64
2023-03-21T05:13:19.850Z,8.63
2023-03-21T05:14:20.489Z,8.56
2023-03-21T05:15:21.991Z,8.61
2023-03-21T05:16:22.747Z,8.59
2023-03-21T05:17:23.428Z,8.6
2023-03-21T05:18:23.801Z,8.6
2023-03-21T05:19:24.725Z,8.61
2023-03-21T05:20:25.250Z,8.63
2023-03-21T05:21:26.775Z,8.57
2023-03-21T05:22:26.969Z,8.64
2023-03-21T05:23:27.993Z,8.59
2023-03-21T05:24:27.942Z,8.64
2023-03-21T05:25:28.429Z,8.61
2023-03-21T05:26:29.379Z,8.66
2023-03-21T05:27:29.614Z,8.66
2023-03-21T05:28:30.113Z,8.63
2023-03-21T05:29:30.332Z,8.68
2023-03-21T05:30:30.555Z,8.68
2023-03-21T05:31:30.990Z,8.72
2023-03-21T05:32:31.677Z,8.64
2023-03-21T05:33:31.808Z,8.69
2023-03-21T05:34:32.550Z,8.75
2023-03-21T05:35:33.198Z,8.69
2023-03-21T05:36:34.105Z,8.63
2023-03-21T05:37:34.758Z,8.77
2023-03-21T05:38:35.392Z,8.71
2023-03-21T05:39:36.345Z,8.68
2023-03-21T05:40:36.867Z,8.71
2023-03-21T05:41:37.101Z,8.72
2023-03-21T05:42:38.046Z,8.66
2023-03-21T05:43:38.340Z,8.72
2023-03-21T05:44:38.977Z,8.74
2023-03-21T05:45:39.915Z,8.78
2023-03-21T05:46:39.173Z,8.74
2023-03-21T05:47:40.314Z,8.72
2023-03-21T05:48:41.118Z,8.79
2023-03-21T05:49:41.783Z,8.71
2023-03-21T05:50:43.011Z,8.77
2023-03-21T05:51:43.969Z,8.79
2023-03-21T05:52:44.312Z,8.77
2023-03-21T05:53:44.931Z,8.82
2023-03-21T05:54:45.164Z,8.81
2023-03-21T05:55:46.607Z,8.74
2023-03-21T05:56:46.666Z,8.82
2023-03-21T05:57:47.652Z,8.79
2023-03-21T05:58:48.565Z,8.84
2023-03-21T05:59:49.772Z,8.79
2023-03-21T06:00:49.986Z,8.77
2023-03-21T06:01:50.483Z,8.79
2023-03-21T06:02:50.591Z,8.78
2023-03-21T06:03:51.783Z,8.81
2023-03-21T06:04:52.161Z,8.84
2023-03-21T06:05:52.656Z,8.82
2023-03-21T06:06:52.678Z,8.87
2023-03-21T06:07:52.934Z,8.79
2023-03-21T06:08:53.482Z,8.89
2023-03-21T06:09:53.991Z,8.92
2023-03-21T06:10:54.191Z,8.9
2023-03-21T06:11:54.722Z,8.95
2023-03-21T06:12:54.921Z,8.79
2023-03-21T06:13:55.251Z,8.82
2023-03-21T06:14:56.456Z,8.89
2023-03-21T06:15:56.776Z,8.9
2023-03-21T06:16:57.814Z,8.9
2023-03-21T06:17:58.340Z,9.02
2023-03-21T06:18:59.014Z,8.96
2023-03-21T06:19:59.953Z,8.97
2023-03-21T06:20:59.933Z,8.99
2023-03-21T06:22:00.906Z,8.97
2023-03-21T06:23:00.844Z,9
2023-03-21T06:24:01.976Z,9
2023-03-21T06:25:02.934Z,9.05
2023-03-21T06:26:03.438Z,9.08
2023-03-21T06:27:04.368Z,9.09
2023-03-21T06:28:04.282Z,9.15
2023-03-21T06:29:04.794Z,9.03
2023-03-21T06:30:05.016Z,9
2023-03-21T06:31:04.866Z,9.08
2023-03-21T06:32:05.891Z,9
2023-03-21T06:33:06.107Z,9.11
2023-03-21T06:34:07.232Z,9.13
2023-03-21T06:35:07.483Z,9.11
2023-03-21T06:36:08.548Z,9.18
2023-03-21T06:37:09.250Z,9.12
2023-03-21T06:38:10.136Z,9.19
2023-03-21T06:39:11.092Z,9.21
2023-03-21T06:40:11.364Z,9.18
2023-03-21T06:41:11.885Z,9.29
2023-03-21T06:42:12.139Z,9.24
2023-03-21T06:43:13.356Z,9.3
2023-03-21T06:44:14.160Z,9.29
2023-03-21T06:45:15.108Z,9.36
2023-03-21T06:46:15.097Z,9.36
2023-03-21T06:47:16.127Z,9.33
2023-03-21T06:48:16.487Z,9.37
2023-03-21T06:49:16.528Z,9.42
2023-03-21T06:50:16.738Z,9.36
2023-03-21T06:51:16.938Z,9.45
2023-03-21T06:52:18.168Z,9.45
2023-03-21T06:53:18.395Z,9.44
2023-03-21T06:54:19.553Z,9.51
2023-03-21T06:55:20.823Z,9.49
2023-03-21T06:56:21.168Z,9.51
2023-03-21T06:57:22.734Z,9.55
2023-03-21T06:58:22.749Z,9.62
2023-03-21T06:59:22.967Z,9.62
2023-03-21T07:00:23.934Z,9.69
2023-03-21T07:01:25.358Z,9.73
2023-03-21T07:02:25.445Z,9.64
2023-03-21T07:03:26.734Z,9.67
2023-03-21T07:04:27.658Z,9.77
2023-03-21T07:05:28.015Z,9.74
2023-03-21T07:06:28.405Z,9.8
2023-03-21T07:07:29.341Z,9.82
2023-03-21T07:08:30.301Z,9.84
2023-03-21T07:09:30.958Z,9.85
2023-03-21T07:10:31.625Z,9.82
2023-03-21T07:11:32.970Z,9.94
2023-03-21T07:12:33.948Z,9.91
2023-03-21T07:13:34.578Z,9.92
2023-03-21T07:14:35.912Z,9.94
2023-03-21T07:15:36.428Z,9.94
2023-03-21T07:16:36.797Z,10.05
2023-03-21T07:17:38.124Z,10.02
2023-03-21T07:18:38.627Z,9.94
2023-03-21T07:19:38.871Z,9.94
2023-03-21T07:20:39.200Z,9.91
2023-03-21T07:21:40.133Z,9.99
2023-03-21T07:22:40.385Z,9.92
2023-03-21T07:23:41.041Z,9.97
2023-03-21T07:24:41.784Z,9.97
2023-03-21T07:25:42.992Z,10
2023-03-21T07:26:43.317Z,10.1
2023-03-21T07:27:46.425Z,10.1
2023-03-21T07:28:44.087Z,10.1
2023-03-21T07:29:45.043Z,10.06
2023-03-21T07:30:46.276Z,10.12
2023-03-21T07:31:47.094Z,10.18
2023-03-21T07:32:48.217Z,10.15
2023-03-21T07:33:48.158Z,10.15
2023-03-21T07:34:49.216Z,10.17
2023-03-21T07:35:50.447Z,10.1
2023-03-21T07:36:51.182Z,10.27
2023-03-21T07:37:51.922Z,10.23
2023-03-21T07:38:52.564Z,10.25
2023-03-21T07:39:53.095Z,10.25
2023-03-21T07:40:53.640Z,10.33
2023-03-21T07:41:53.852Z,10.42
2023-03-21T07:42:54.413Z,10.31
2023-03-21T07:43:54.779Z,10.31
2023-03-21T07:44:55.826Z,10.31
2023-03-21T07:45:55.816Z,10.45
2023-03-21T07:46:56.670Z,10.45
2023-03-21T07:47:57.051Z,10.43
2023-03-21T07:48:57.441Z,10.61
2023-03-21T07:49:57.649Z,10.57
2023-03-21T07:50:57.344Z,10.57
2023-03-21T07:51:58.563Z,10.62
2023-03-21T07:52:58.749Z,10.61
2023-03-21T07:53:58.756Z,10.65
2023-03-21T07:54:59.140Z,10.62
2023-03-21T07:55:59.095Z,10.65
2023-03-21T07:56:59.642Z,10.71
2023-03-21T07:57:59.899Z,10.75
2023-03-21T07:59:00.455Z,10.79
2023-03-21T08:00:00.691Z,10.86
2023-03-21T08:01:01.617Z,10.86
2023-03-21T08:02:01.963Z,10.98
2023-03-21T08:03:04.469Z,10.98
2023-03-21T08:04:02.279Z,10.89
2023-03-21T08:05:03.581Z,10.98
2023-03-21T08:06:04.119Z,10.97
2023-03-21T08:07:04.331Z,10.83
2023-03-21T08:08:05.330Z,10.92
2023-03-21T08:09:05.285Z,10.98
2023-03-21T08:10:06.002Z,11.07
2023-03-21T08:11:06.692Z,11.05
2023-03-21T08:12:07.401Z,11.16
2023-03-21T08:13:07.956Z,11.18
2023-03-21T08:14:08.497Z,11.2
2023-03-21T08:15:08.882Z,11.27
2023-03-21T08:16:09.161Z,11.33
2023-03-21T08:17:10.015Z,11.33
2023-03-21T08:18:10.365Z,11.38
2023-03-21T08:19:11.416Z,11.35
2023-03-21T08:20:11.657Z,11.3
2023-03-21T08:21:13.306Z,11.34
2023-03-21T08:22:12.560Z,11.37
2023-03-21T08:23:13.889Z,11.35
2023-03-21T08:24:14.397Z,11.38
2023-03-21T08:25:14.463Z,11.41
2023-03-21T08:26:15.722Z,11.44
2023-03-21T08:27:15.390Z,11.48
2023-03-21T08:28:16.983Z,11.51
2023-03-21T08:29:17.196Z,11.59
2023-03-21T08:30:17.696Z,11.59
2023-03-21T08:31:18.593Z,11.56
2023-03-21T08:32:18.943Z,11.59
2023-03-21T08:33:19.075Z,11.59
2023-03-21T08:34:19.450Z,11.62
2023-03-21T08:35:19.839Z,11.77
2023-03-21T08:36:20.513Z,11.77
2023-03-21T08:37:20.252Z,11.83
2023-03-21T08:38:21.792Z,11.85
2023-03-21T08:39:22.647Z,11.96
2023-03-21T08:40:22.756Z,11.86
2023-03-21T08:41:23.037Z,11.85
2023-03-21T08:42:23.277Z,11.89
2023-03-21T08:43:23.837Z,11.88
2023-03-21T08:44:24.053Z,11.88
2023-03-21T08:45:23.906Z,11.91
2023-03-21T08:46:24.963Z,11.88
2023-03-21T08:47:25.266Z,11.88
2023-03-21T08:48:26.031Z,11.91
2023-03-21T08:49:26.158Z,11.89
2023-03-21T08:50:27.083Z,11.95
2023-03-21T08:51:27.733Z,11.88
2023-03-21T08:52:28.255Z,11.93
2023-03-21T08:53:28.482Z,11.96
2023-03-21T08:54:28.719Z,11.99
2023-03-21T08:55:29.066Z,12.03
2023-03-21T08:56:29.633Z,12.02
2023-03-21T08:57:30.255Z,12.08
2023-03-21T08:58:30.654Z,12.15
2023-03-21T08:59:31.619Z,12.08
2023-03-21T09:00:32.560Z,12.21
2023-03-21T09:01:33.659Z,12.18
2023-03-21T09:02:34.538Z,12.29
2023-03-21T09:03:35.097Z,12.36
2023-03-21T09:04:35.569Z,12.47
2023-03-21T09:05:36.434Z,12.48
2023-03-21T09:06:36.577Z,12.57
2023-03-21T09:07:37.542Z,12.7
2023-03-21T09:08:38.071Z,12.62
2023-03-21T09:09:38.387Z,12.7
2023-03-21T09:10:38.750Z,12.83
2023-03-21T09:11:39.994Z,12.88
2023-03-21T09:12:40.143Z,12.91
2023-03-21T09:13:40.427Z,12.87
2023-03-21T09:14:40.962Z,12.94
2023-03-21T09:15:41.692Z,12.9
2023-03-21T09:16:41.805Z,12.83
2023-03-21T09:17:42.026Z,12.76
2023-03-21T09:18:42.971Z,12.9
2023-03-21T09:19:43.194Z,12.8
2023-03-21T09:20:43.588Z,12.87
2023-03-21T09:21:43.613Z,12.88
2023-03-21T09:22:47.789Z,12.99
2023-03-21T09:23:45.087Z,13.01
2023-03-21T09:24:45.684Z,13.01
2023-03-21T09:25:46.713Z,13.06
2023-03-21T09:26:46.253Z,13.08
2023-03-21T09:27:46.852Z,13.16
2023-03-21T09:28:47.432Z,13.12
2023-03-21T09:29:47.643Z,13.23
2023-03-21T09:30:47.629Z,13.23
2023-03-21T09:31:48.599Z,13.37
2023-03-21T09:32:48.949Z,13.33
2023-03-21T09:33:49.411Z,13.28
2023-03-21T09:34:49.750Z,13.21
2023-03-21T09:35:52.368Z,13.33
2023-03-21T09:36:50.417Z,13.37
2023-03-21T09:37:50.646Z,13.31
2023-03-21T09:38:51.422Z,13.3
2023-03-21T09:39:51.691Z,13.37
2023-03-21T09:40:53.013Z,13.36
2023-03-21T09:41:53.684Z,13.28
2023-03-21T09:42:53.626Z,13.28
2023-03-21T09:43:53.904Z,13.37
2023-03-21T09:44:54.109Z,13.2
2023-03-21T09:45:54.420Z,13.26
2023-03-21T09:46:55.647Z,13.33
2023-03-21T09:47:56.215Z,13.23
2023-03-21T09:49:03.230Z,13.28
2023-03-21T09:50:15.012Z,13.27
2023-03-21T09:50:57.776Z,13.3
2023-03-21T09:51:58.320Z,13.26
2023-03-21T09:52:59.319Z,13.2
2023-03-21T09:54:02.252Z,13.27
2023-03-21T09:54:59.515Z,13.26
2023-03-21T09:56:00.536Z,13.2
2023-03-21T09:57:00.496Z,13.27
2023-03-21T09:58:00.743Z,13.36
2023-03-21T09:59:01.360Z,13.3
2023-03-21T10:00:01.513Z,13.28
2023-03-21T10:01:02.529Z,13.31
2023-03-21T10:02:03.089Z,13.36
2023-03-21T10:03:03.625Z,13.4
2023-03-21T10:04:03.986Z,13.42
2023-03-21T10:05:04.151Z,13.49
2023-03-21T10:06:04.749Z,13.54
2023-03-21T10:07:05.827Z,13.43
2023-03-21T10:08:07.295Z,13.42
2023-03-21T10:09:07.608Z,13.46
2023-03-21T10:10:07.843Z,13.49
2023-03-21T10:11:08.095Z,13.52
2023-03-21T10:12:08.787Z,13.45
2023-03-21T10:13:09.290Z,13.54
2023-03-21T10:14:09.577Z,13.58
2023-03-21T10:15:10.089Z,13.67
2023-03-21T10:16:11.135Z,13.76
2023-03-21T10:17:11.314Z,13.75
2023-03-21T10:18:12.532Z,13.75
2023-03-21T10:19:12.820Z,13.82
2023-03-21T10:20:12.884Z,13.93
2023-03-21T10:21:31.983Z,13.85
2023-03-21T10:22:12.559Z,13.98
2023-03-21T10:23:12.828Z,14.01
2023-03-21T10:24:12.985Z,14
2023-03-21T10:25:13.157Z,14.01
2023-03-21T10:26:18.057Z,14.16
2023-03-21T10:27:14.739Z,14.15
2023-03-21T10:28:15.690Z,14.16
2023-03-21T10:29:17.176Z,14.15
2023-03-21T10:30:17.299Z,14.05
2023-03-21T10:31:17.996Z,14.04
2023-03-21T10:32:18.076Z,13.87
2023-03-21T10:33:18.868Z,13.97
2023-03-21T10:34:19.276Z,14
2023-03-21T10:35:20.656Z,13.98
2023-03-21T10:36:21.485Z,14.01
2023-03-21T10:37:22.216Z,14.07
2023-03-21T10:38:22.177Z,13.97
2023-03-21T10:39:23.725Z,14.03
2023-03-21T10:40:23.400Z,13.94
2023-03-21T10:41:24.341Z,14.03
2023-03-21T10:42:24.609Z,14.11
2023-03-21T10:43:24.830Z,14.15
2023-03-21T10:44:25.357Z,14.12
2023-03-21T10:45:25.354Z,14.18
2023-03-21T10:46:27.133Z,14.2
2023-03-21T10:47:27.215Z,14.22
2023-03-21T10:48:27.481Z,14.38
2023-03-21T10:49:27.867Z,14.37
2023-03-21T10:50:28.451Z,14.36
2023-03-21T10:51:29.077Z,14.53
2023-03-21T10:52:30.286Z,14.59
2023-03-21T10:53:31.123Z,14.49
2023-03-21T10:54:31.139Z,14.66
2023-03-21T10:55:31.810Z,14.63
2023-03-21T10:56:32.926Z,14.61
2023-03-21T10:57:33.489Z,14.55
2023-03-21T10:58:34.078Z,14.53
2023-03-21T10:59:34.385Z,14.56
2023-03-21T11:00:35.032Z,14.63
2023-03-21T11:01:37.037Z,14.59
2023-03-21T11:02:36.638Z,14.61
2023-03-21T11:03:37.548Z,14.61
2023-03-21T11:04:38.057Z,14.66
2023-03-21T11:05:38.868Z,14.61
2023-03-21T11:06:38.970Z,14.61
2023-03-21T11:07:39.905Z,14.71
2023-03-21T11:08:40.458Z,14.62
2023-03-21T11:09:41.015Z,14.73
2023-03-21T11:10:40.960Z,14.67
2023-03-21T11:11:41.520Z,14.78
2023-03-21T11:12:41.720Z,14.87
2023-03-21T11:13:41.773Z,14.99
2023-03-21T11:14:42.386Z,15.05
2023-03-21T11:15:43.649Z,15.14
2023-03-21T11:16:46.245Z,15.17
2023-03-21T11:17:44.354Z,15.14
2023-03-21T11:18:44.885Z,15.32
2023-03-21T11:19:45.063Z,15.27
2023-03-21T11:20:45.572Z,15.26
2023-03-21T11:21:45.511Z,15.18
2023-03-21T11:22:46.174Z,15.19
2023-03-21T11:23:47.690Z,15.12
2023-03-21T11:24:48.668Z,15.17
2023-03-21T11:25:49.599Z,15.18
2023-03-21T11:26:49.681Z,15.22
2023-03-21T11:27:50.659Z,15.27
2023-03-21T11:28:51.169Z,15.18
2023-03-21T11:29:51.495Z,15.22
2023-03-21T11:30:51.984Z,15.1
2023-03-21T11:31:52.690Z,15.08
2023-03-21T11:32:53.348Z,14.96
2023-03-21T11:33:53.909Z,15.11
2023-03-21T11:34:54.137Z,15.04
2023-03-21T11:35:55.348Z,15.02
2023-03-21T11:36:55.585Z,14.89
2023-03-21T11:37:55.556Z,14.94
2023-03-21T11:38:56.814Z,14.79
2023-03-21T11:39:57.053Z,14.85
2023-03-21T11:40:58.018Z,14.89
2023-03-21T11:41:58.306Z,14.9
2023-03-21T11:42:58.270Z,14.85
2023-03-21T11:43:59.273Z,14.85
2023-03-21T11:44:59.307Z,14.86
2023-03-21T11:46:00.424Z,14.96
2023-03-21T11:47:01.040Z,15.1
2023-03-21T11:48:01.768Z,15.12
2023-03-21T11:49:02.456Z,15.08
2023-03-21T11:50:10.977Z,15.07
2023-03-21T11:51:03.229Z,15
2023-03-21T11:52:03.863Z,15.04
2023-03-21T11:53:04.077Z,15.14
2023-03-21T11:54:04.007Z,15.12
2023-03-21T11:55:04.277Z,15.17
2023-03-21T11:56:05.510Z,15.19
2023-03-21T11:57:06.025Z,15.32
2023-03-21T11:58:19.962Z,15.36
2023-03-21T11:59:07.701Z,15.44
2023-03-21T12:00:08.374Z,15.33
2023-03-21T12:01:09.287Z,15.3
2023-03-21T12:02:09.551Z,15.27
2023-03-21T12:03:10.277Z,15.29
2023-03-21T12:04:11.229Z,15.18
2023-03-21T12:05:11.014Z,15.15
2023-03-21T12:06:12.240Z,15.17
2023-03-21T12:07:12.071Z,15.25
2023-03-21T12:08:13.385Z,15.15
2023-03-21T12:09:13.613Z,15.17
2023-03-21T12:10:15.000Z,15.15
2023-03-21T12:11:15.603Z,15.18
2023-03-21T12:12:16.234Z,15.29
2023-03-21T12:13:16.358Z,15.27
2023-03-21T12:14:16.495Z,15.32
2023-03-21T12:15:17.083Z,15.3
2023-03-21T12:16:18.303Z,15.33
2023-03-21T12:17:18.891Z,15.41
2023-03-21T12:18:18.842Z,15.39
2023-03-21T12:19:20.076Z,15.45
2023-03-21T12:20:20.809Z,15.39
2023-03-21T12:21:21.071Z,15.48
2023-03-21T12:22:21.298Z,15.43
2023-03-21T12:23:22.019Z,15.47
2023-03-21T12:24:22.411Z,15.44
2023-03-21T12:25:23.665Z,15.48
2023-03-21T12:26:23.953Z,15.45
2023-03-21T12:27:25.385Z,15.3
2023-03-21T12:28:37.396Z,15.29
2023-03-21T12:29:26.503Z,15.27
2023-03-21T12:30:27.317Z,15.32
2023-03-21T12:31:28.158Z,15.26
2023-03-21T12:32:28.915Z,15.33
2023-03-21T12:33:29.175Z,15.45
2023-03-21T12:34:30.566Z,15.47
2023-03-21T12:35:30.814Z,15.54
2023-03-21T12:36:31.864Z,15.59
2023-03-21T12:37:32.693Z,15.54
2023-03-21T12:38:33.167Z,15.59
2023-03-21T12:39:34.414Z,15.62
2023-03-21T12:40:34.473Z,15.62
2023-03-21T12:41:35.127Z,15.41
2023-03-21T12:42:36.520Z,15.48
2023-03-21T12:43:37.448Z,15.47
2023-03-21T12:44:37.826Z,15.45
2023-03-21T12:45:52.871Z,15.5
2023-03-21T12:46:39.016Z,15.48
2023-03-21T12:47:39.402Z,15.52
2023-03-21T12:48:40.308Z,15.39
2023-03-21T12:49:40.960Z,15.47
2023-03-21T12:50:41.701Z,15.43
2023-03-21T12:51:41.893Z,15.37
2023-03-21T12:52:41.842Z,15.5
2023-03-21T12:53:43.085Z,15.51
2023-03-21T12:54:43.421Z,15.6
2023-03-21T12:55:44.343Z,15.73
2023-03-21T12:56:44.858Z,15.73
2023-03-21T12:57:58.140Z,15.84
2023-03-21T12:58:48.640Z,15.94
2023-03-21T12:59:46.181Z,16
2023-03-21T13:00:47.311Z,15.98
2023-03-21T13:01:47.064Z,15.96
2023-03-21T13:02:47.302Z,16.06
2023-03-21T13:03:47.636Z,16.05
2023-03-21T13:04:47.966Z,16.16
2023-03-21T13:05:48.874Z,16.31
2023-03-21T13:06:49.519Z,16.29
2023-03-21T13:07:50.045Z,16.29
2023-03-21T13:08:51.280Z,16.29
2023-03-21T13:09:51.328Z,16.29
2023-03-21T13:10:52.704Z,16.36
2023-03-21T13:11:52.720Z,16.4
2023-03-21T13:12:53.723Z,16.46
2023-03-21T13:13:54.674Z,16.39
2023-03-21T13:14:55.782Z,16.4
2023-03-21T13:15:56.360Z,16.37
2023-03-21T13:16:57.674Z,16.37
2023-03-21T13:17:57.277Z,16.44
2023-03-21T13:18:57.791Z,16.44
2023-03-21T13:19:58.014Z,16.41